sensor_id;sensor_type;location;lat;lon;timestamp;temperature;humidity
68450;SHT30;67758;39.572;2.652;2024-02-23T00:01:50;17.24;71.65
68450;SHT30;67758;39.572;2.652;2024-02-23T00:04:15;17.18;71.96
68450;SHT30;67758;39.572;2.652;2024-02-23T00:06:41;17.22;71.95
68450;SHT30;67758;39.572;2.652;2024-02-23T00:09:07;17.32;71.50
68450;SHT30;67758;39.572;2.652;2024-02-23T00:11:32;17.24;71.69
68450;SHT30;67758;39.572;2.652;2024-02-23T00:13:59;17.09;72.06
68450;SHT30;67758;39.572;2.652;2024-02-23T00:16:25;17.02;71.98
68450;SHT30;67758;39.572;2.652;2024-02-23T00:18:51;17.06;71.88
68450;SHT30;67758;39.572;2.652;2024-02-23T00:21:18;17.06;71.76
68450;SHT30;67758;39.572;2.652;2024-02-23T00:23:43;17.06;71.69
68450;SHT30;67758;39.572;2.652;2024-02-23T00:26:09;17.05;71.67
68450;SHT30;67758;39.572;2.652;2024-02-23T00:28:34;16.92;72.25
68450;SHT30;67758;39.572;2.652;2024-02-23T00:31:00;16.81;72.62
68450;SHT30;67758;39.572;2.652;2024-02-23T00:33:26;17.39;70.32
68450;SHT30;67758;39.572;2.652;2024-02-23T00:35:51;17.57;69.79
68450;SHT30;67758;39.572;2.652;2024-02-23T00:38:17;17.59;69.70
68450;SHT30;67758;39.572;2.652;2024-02-23T00:40:43;17.60;69.73
68450;SHT30;67758;39.572;2.652;2024-02-23T00:43:08;17.62;69.56
68450;SHT30;67758;39.572;2.652;2024-02-23T00:45:34;17.64;69.50
68450;SHT30;67758;39.572;2.652;2024-02-23T00:47:59;17.73;69.23
68450;SHT30;67758;39.572;2.652;2024-02-23T00:50:25;17.69;69.48
68450;SHT30;67758;39.572;2.652;2024-02-23T00:52:54;17.67;69.40
68450;SHT30;67758;39.572;2.652;2024-02-23T00:55:20;17.51;69.90
68450;SHT30;67758;39.572;2.652;2024-02-23T00:57:45;17.46;70.90
68450;SHT30;67758;39.572;2.652;2024-02-23T01:00:11;17.50;71.52
68450;SHT30;67758;39.572;2.652;2024-02-23T01:02:40;17.40;72.37
68450;SHT30;67758;39.572;2.652;2024-02-23T01:05:06;17.33;73.74
68450;SHT30;67758;39.572;2.652;2024-02-23T01:07:35;17.29;74.39
68450;SHT30;67758;39.572;2.652;2024-02-23T01:10:00;17.16;74.82
68450;SHT30;67758;39.572;2.652;2024-02-23T01:12:26;17.08;75.41
68450;SHT30;67758;39.572;2.652;2024-02-23T01:14:51;17.09;75.62
68450;SHT30;67758;39.572;2.652;2024-02-23T01:17:17;17.03;75.68
68450;SHT30;67758;39.572;2.652;2024-02-23T01:19:43;17.05;75.63
68450;SHT30;67758;39.572;2.652;2024-02-23T01:22:11;17.03;75.52
68450;SHT30;67758;39.572;2.652;2024-02-23T01:24:36;17.03;75.49
68450;SHT30;67758;39.572;2.652;2024-02-23T01:27:02;17.01;75.64
68450;SHT30;67758;39.572;2.652;2024-02-23T01:29:28;16.92;75.76
68450;SHT30;67758;39.572;2.652;2024-02-23T01:31:53;16.92;75.27
68450;SHT30;67758;39.572;2.652;2024-02-23T01:34:22;16.89;74.75
68450;SHT30;67758;39.572;2.652;2024-02-23T01:36:47;16.91;74.48
68450;SHT30;67758;39.572;2.652;2024-02-23T01:39:13;16.83;74.94
68450;SHT30;67758;39.572;2.652;2024-02-23T01:41:39;16.83;75.39
68450;SHT30;67758;39.572;2.652;2024-02-23T01:44:05;16.82;75.58
68450;SHT30;67758;39.572;2.652;2024-02-23T01:46:31;16.82;74.80
68450;SHT30;67758;39.572;2.652;2024-02-23T01:48:57;16.82;74.86
68450;SHT30;67758;39.572;2.652;2024-02-23T01:51:24;16.78;74.45
68450;SHT30;67758;39.572;2.652;2024-02-23T01:53:50;16.75;74.49
68450;SHT30;67758;39.572;2.652;2024-02-23T01:56:16;16.68;74.52
68450;SHT30;67758;39.572;2.652;2024-02-23T01:58:46;16.58;74.83
68450;SHT30;67758;39.572;2.652;2024-02-23T02:01:12;16.48;75.21
68450;SHT30;67758;39.572;2.652;2024-02-23T02:03:41;16.37;76.06
68450;SHT30;67758;39.572;2.652;2024-02-23T02:06:06;16.25;76.93
68450;SHT30;67758;39.572;2.652;2024-02-23T02:08:36;16.14;77.93
68450;SHT30;67758;39.572;2.652;2024-02-23T02:11:02;15.91;78.33
68450;SHT30;67758;39.572;2.652;2024-02-23T02:13:29;15.80;77.92
68450;SHT30;67758;39.572;2.652;2024-02-23T02:15:54;15.83;77.26
68450;SHT30;67758;39.572;2.652;2024-02-23T02:18:20;15.71;76.73
68450;SHT30;67758;39.572;2.652;2024-02-23T02:20:55;15.70;76.12
68450;SHT30;67758;39.572;2.652;2024-02-23T02:23:23;15.66;73.91
68450;SHT30;67758;39.572;2.652;2024-02-23T02:25:58;15.66;72.76
68450;SHT30;67758;39.572;2.652;2024-02-23T02:28:25;15.65;72.70
68450;SHT30;67758;39.572;2.652;2024-02-23T02:30:51;15.56;72.58
68450;SHT30;67758;39.572;2.652;2024-02-23T02:33:18;15.50;72.84
68450;SHT30;67758;39.572;2.652;2024-02-23T02:35:44;15.48;72.86
68450;SHT30;67758;39.572;2.652;2024-02-23T02:38:10;15.52;72.80
68450;SHT30;67758;39.572;2.652;2024-02-23T02:40:36;15.50;72.49
68450;SHT30;67758;39.572;2.652;2024-02-23T02:43:02;15.58;71.67
68450;SHT30;67758;39.572;2.652;2024-02-23T02:45:28;15.63;70.94
68450;SHT30;67758;39.572;2.652;2024-02-23T02:47:54;15.66;70.72
68450;SHT30;67758;39.572;2.652;2024-02-23T02:50:19;15.69;71.16
68450;SHT30;67758;39.572;2.652;2024-02-23T02:52:45;15.59;72.20
68450;SHT30;67758;39.572;2.652;2024-02-23T02:55:11;15.55;72.98
68450;SHT30;67758;39.572;2.652;2024-02-23T02:57:37;15.43;73.85
68450;SHT30;67758;39.572;2.652;2024-02-23T03:00:03;15.38;74.56
68450;SHT30;67758;39.572;2.652;2024-02-23T03:02:33;15.31;75.60
68450;SHT30;67758;39.572;2.652;2024-02-23T03:04:59;15.24;76.76
68450;SHT30;67758;39.572;2.652;2024-02-23T03:07:24;15.15;77.75
68450;SHT30;67758;39.572;2.652;2024-02-23T03:09:50;15.01;79.09
68450;SHT30;67758;39.572;2.652;2024-02-23T03:12:16;14.98;79.55
68450;SHT30;67758;39.572;2.652;2024-02-23T03:14:43;14.99;79.91
68450;SHT30;67758;39.572;2.652;2024-02-23T03:17:08;14.92;80.22
68450;SHT30;67758;39.572;2.652;2024-02-23T03:19:38;14.89;80.10
68450;SHT30;67758;39.572;2.652;2024-02-23T03:22:04;14.91;80.08
68450;SHT30;67758;39.572;2.652;2024-02-23T03:24:30;14.88;80.19
68450;SHT30;67758;39.572;2.652;2024-02-23T03:26:55;14.88;80.22
68450;SHT30;67758;39.572;2.652;2024-02-23T03:29:22;14.87;80.20
68450;SHT30;67758;39.572;2.652;2024-02-23T03:31:58;14.84;79.75
68450;SHT30;67758;39.572;2.652;2024-02-23T03:34:24;14.85;79.46
68450;SHT30;67758;39.572;2.652;2024-02-23T03:36:49;14.84;79.22
68450;SHT30;67758;39.572;2.652;2024-02-23T03:39:15;14.84;79.09
68450;SHT30;67758;39.572;2.652;2024-02-23T03:41:41;14.87;78.89
68450;SHT30;67758;39.572;2.652;2024-02-23T03:44:06;14.88;77.60
68450;SHT30;67758;39.572;2.652;2024-02-23T03:46:32;14.85;77.73
68450;SHT30;67758;39.572;2.652;2024-02-23T03:48:57;14.85;78.44
68450;SHT30;67758;39.572;2.652;2024-02-23T03:51:23;14.81;77.91
68450;SHT30;67758;39.572;2.652;2024-02-23T03:53:49;14.74;76.82
68450;SHT30;67758;39.572;2.652;2024-02-23T03:56:15;14.74;76.47
68450;SHT30;67758;39.572;2.652;2024-02-23T03:58:41;14.56;76.61
68450;SHT30;67758;39.572;2.652;2024-02-23T04:01:06;14.38;76.69
68450;SHT30;67758;39.572;2.652;2024-02-23T04:03:32;14.30;76.30
68450;SHT30;67758;39.572;2.652;2024-02-23T04:05:58;14.27;76.21
68450;SHT30;67758;39.572;2.652;2024-02-23T04:08:23;14.17;76.78
68450;SHT30;67758;39.572;2.652;2024-02-23T04:10:49;13.95;77.21
68450;SHT30;67758;39.572;2.652;2024-02-23T04:13:14;13.83;78.13
68450;SHT30;67758;39.572;2.652;2024-02-23T04:15:40;13.69;77.74
68450;SHT30;67758;39.572;2.652;2024-02-23T04:18:06;13.71;76.50
68450;SHT30;67758;39.572;2.652;2024-02-23T04:20:32;13.72;76.25
68450;SHT30;67758;39.572;2.652;2024-02-23T04:22:58;13.69;76.44
68450;SHT30;67758;39.572;2.652;2024-02-23T04:25:24;13.66;76.36
68450;SHT30;67758;39.572;2.652;2024-02-23T04:27:49;13.71;76.22
68450;SHT30;67758;39.572;2.652;2024-02-23T04:30:15;13.66;75.95
68450;SHT30;67758;39.572;2.652;2024-02-23T04:32:40;13.68;76.47
68450;SHT30;67758;39.572;2.652;2024-02-23T04:35:07;13.66;76.49
68450;SHT30;67758;39.572;2.652;2024-02-23T04:37:33;13.64;76.90
68450;SHT30;67758;39.572;2.652;2024-02-23T04:39:59;13.59;77.60
68450;SHT30;67758;39.572;2.652;2024-02-23T04:42:25;13.58;78.11
68450;SHT30;67758;39.572;2.652;2024-02-23T04:44:50;13.52;78.95
68450;SHT30;67758;39.572;2.652;2024-02-23T04:47:18;13.52;79.36
68450;SHT30;67758;39.572;2.652;2024-02-23T04:49:43;13.50;79.93
68450;SHT30;67758;39.572;2.652;2024-02-23T04:52:09;13.51;80.00
68450;SHT30;67758;39.572;2.652;2024-02-23T04:54:34;13.48;80.36
68450;SHT30;67758;39.572;2.652;2024-02-23T04:57:00;13.45;80.65
68450;SHT30;67758;39.572;2.652;2024-02-23T04:59:26;13.44;81.07
68450;SHT30;67758;39.572;2.652;2024-02-23T05:01:52;13.45;81.32
68450;SHT30;67758;39.572;2.652;2024-02-23T05:04:17;13.47;81.37
68450;SHT30;67758;39.572;2.652;2024-02-23T05:06:43;13.48;81.50
68450;SHT30;67758;39.572;2.652;2024-02-23T05:09:09;13.48;81.34
68450;SHT30;67758;39.572;2.652;2024-02-23T05:11:35;13.51;80.72
68450;SHT30;67758;39.572;2.652;2024-02-23T05:14:00;13.52;80.24
68450;SHT30;67758;39.572;2.652;2024-02-23T05:16:26;13.55;79.71
68450;SHT30;67758;39.572;2.652;2024-02-23T05:18:51;13.57;80.13
68450;SHT30;67758;39.572;2.652;2024-02-23T05:21:17;13.52;80.47
68450;SHT30;67758;39.572;2.652;2024-02-23T05:23:43;13.54;80.36
68450;SHT30;67758;39.572;2.652;2024-02-23T05:26:08;13.54;80.86
68450;SHT30;67758;39.572;2.652;2024-02-23T05:28:35;13.54;81.09
68450;SHT30;67758;39.572;2.652;2024-02-23T05:31:04;13.55;80.87
68450;SHT30;67758;39.572;2.652;2024-02-23T05:33:30;13.58;80.69
68450;SHT30;67758;39.572;2.652;2024-02-23T05:35:55;13.54;80.10
68450;SHT30;67758;39.572;2.652;2024-02-23T05:38:21;13.54;78.81
68450;SHT30;67758;39.572;2.652;2024-02-23T05:40:46;13.57;78.17
68450;SHT30;67758;39.572;2.652;2024-02-23T05:43:13;13.57;78.09
68450;SHT30;67758;39.572;2.652;2024-02-23T05:45:39;13.57;77.90
68450;SHT30;67758;39.572;2.652;2024-02-23T05:48:06;13.58;77.56
68450;SHT30;67758;39.572;2.652;2024-02-23T05:50:32;13.52;78.24
68450;SHT30;67758;39.572;2.652;2024-02-23T05:52:58;13.48;78.46
68450;SHT30;67758;39.572;2.652;2024-02-23T05:55:23;13.50;78.68
68450;SHT30;67758;39.572;2.652;2024-02-23T05:57:49;13.47;79.10
68450;SHT30;67758;39.572;2.652;2024-02-23T06:00:16;13.45;79.35
68450;SHT30;67758;39.572;2.652;2024-02-23T06:02:44;13.41;79.03
68450;SHT30;67758;39.572;2.652;2024-02-23T06:05:11;13.40;78.41
68450;SHT30;67758;39.572;2.652;2024-02-23T06:07:37;13.40;77.35
68450;SHT30;67758;39.572;2.652;2024-02-23T06:10:03;13.41;76.55
68450;SHT30;67758;39.572;2.652;2024-02-23T06:12:29;13.42;75.91
68450;SHT30;67758;39.572;2.652;2024-02-23T06:14:54;13.45;74.72
68450;SHT30;67758;39.572;2.652;2024-02-23T06:17:22;13.47;73.64
68450;SHT30;67758;39.572;2.652;2024-02-23T06:19:48;13.47;73.57
68450;SHT30;67758;39.572;2.652;2024-02-23T06:22:14;13.51;73.62
68450;SHT30;67758;39.572;2.652;2024-02-23T06:24:42;13.48;73.21
68450;SHT30;67758;39.572;2.652;2024-02-23T06:27:08;13.51;73.10
68450;SHT30;67758;39.572;2.652;2024-02-23T06:29:33;13.50;73.35
68450;SHT30;67758;39.572;2.652;2024-02-23T06:31:59;13.45;73.16
68450;SHT30;67758;39.572;2.652;2024-02-23T06:34:26;13.44;73.23
68450;SHT30;67758;39.572;2.652;2024-02-23T06:36:52;13.41;73.54
68450;SHT30;67758;39.572;2.652;2024-02-23T06:39:18;13.38;73.75
68450;SHT30;67758;39.572;2.652;2024-02-23T06:41:45;13.34;73.90
68450;SHT30;67758;39.572;2.652;2024-02-23T06:44:11;13.38;74.11
68450;SHT30;67758;39.572;2.652;2024-02-23T06:46:37;13.37;74.16
68450;SHT30;67758;39.572;2.652;2024-02-23T06:49:02;13.37;73.95
68450;SHT30;67758;39.572;2.652;2024-02-23T06:51:31;13.35;73.23
68450;SHT30;67758;39.572;2.652;2024-02-23T06:53:56;13.40;73.00
68450;SHT30;67758;39.572;2.652;2024-02-23T06:56:22;13.38;71.69
68450;SHT30;67758;39.572;2.652;2024-02-23T06:58:48;13.40;70.84
68450;SHT30;67758;39.572;2.652;2024-02-23T07:01:13;13.40;69.59
68450;SHT30;67758;39.572;2.652;2024-02-23T07:03:39;13.45;68.58
68450;SHT30;67758;39.572;2.652;2024-02-23T07:06:06;13.44;68.33
68450;SHT30;67758;39.572;2.652;2024-02-23T07:08:32;13.35;68.10
68450;SHT30;67758;39.572;2.652;2024-02-23T07:10:57;13.35;67.08
68450;SHT30;67758;39.572;2.652;2024-02-23T07:13:23;13.38;67.41
68450;SHT30;67758;39.572;2.652;2024-02-23T07:15:48;13.32;66.22
68450;SHT30;67758;39.572;2.652;2024-02-23T07:18:14;13.27;64.83
68450;SHT30;67758;39.572;2.652;2024-02-23T07:20:41;13.30;60.93
68450;SHT30;67758;39.572;2.652;2024-02-23T07:23:06;13.28;60.00
68450;SHT30;67758;39.572;2.652;2024-02-23T07:25:33;13.31;60.10
68450;SHT30;67758;39.572;2.652;2024-02-23T07:27:58;13.31;60.08
68450;SHT30;67758;39.572;2.652;2024-02-23T07:30:24;13.25;60.46
68450;SHT30;67758;39.572;2.652;2024-02-23T07:32:49;13.20;60.03
68450;SHT30;67758;39.572;2.652;2024-02-23T07:35:15;13.17;59.53
68450;SHT30;67758;39.572;2.652;2024-02-23T07:37:41;13.14;59.03
68450;SHT30;67758;39.572;2.652;2024-02-23T07:40:07;13.15;59.22
68450;SHT30;67758;39.572;2.652;2024-02-23T07:42:33;13.08;59.24
68450;SHT30;67758;39.572;2.652;2024-02-23T07:45:06;13.10;59.49
68450;SHT30;67758;39.572;2.652;2024-02-23T07:47:32;13.10;59.96
68450;SHT30;67758;39.572;2.652;2024-02-23T07:49:58;13.11;60.32
68450;SHT30;67758;39.572;2.652;2024-02-23T07:52:24;13.06;60.67
68450;SHT30;67758;39.572;2.652;2024-02-23T07:54:53;13.06;61.13
68450;SHT30;67758;39.572;2.652;2024-02-23T07:57:19;13.08;61.18
68450;SHT30;67758;39.572;2.652;2024-02-23T07:59:46;13.11;61.48
68450;SHT30;67758;39.572;2.652;2024-02-23T08:02:11;13.17;61.50
68450;SHT30;67758;39.572;2.652;2024-02-23T08:04:37;13.13;60.98
68450;SHT30;67758;39.572;2.652;2024-02-23T08:07:03;13.07;61.15
68450;SHT30;67758;39.572;2.652;2024-02-23T08:09:29;13.10;61.12
68450;SHT30;67758;39.572;2.652;2024-02-23T08:11:55;13.13;61.08
68450;SHT30;67758;39.572;2.652;2024-02-23T08:14:21;13.17;61.13
68450;SHT30;67758;39.572;2.652;2024-02-23T08:16:46;13.20;61.11
68450;SHT30;67758;39.572;2.652;2024-02-23T08:19:12;13.18;61.35
68450;SHT30;67758;39.572;2.652;2024-02-23T08:21:38;13.21;61.83
68450;SHT30;67758;39.572;2.652;2024-02-23T08:24:04;13.25;61.65
68450;SHT30;67758;39.572;2.652;2024-02-23T08:26:30;13.24;62.09
68450;SHT30;67758;39.572;2.652;2024-02-23T08:28:56;13.25;62.01
68450;SHT30;67758;39.572;2.652;2024-02-23T08:31:21;13.21;62.14
68450;SHT30;67758;39.572;2.652;2024-02-23T08:33:47;13.25;62.35
68450;SHT30;67758;39.572;2.652;2024-02-23T08:36:13;13.32;62.04
68450;SHT30;67758;39.572;2.652;2024-02-23T08:38:38;13.35;61.82
68450;SHT30;67758;39.572;2.652;2024-02-23T08:41:04;13.34;61.83
68450;SHT30;67758;39.572;2.652;2024-02-23T08:43:29;13.32;61.90
68450;SHT30;67758;39.572;2.652;2024-02-23T08:45:55;13.31;61.68
68450;SHT30;67758;39.572;2.652;2024-02-23T08:48:21;13.35;60.82
68450;SHT30;67758;39.572;2.652;2024-02-23T08:50:46;13.45;60.14
68450;SHT30;67758;39.572;2.652;2024-02-23T08:53:12;13.44;59.63
68450;SHT30;67758;39.572;2.652;2024-02-23T08:55:37;13.42;59.78
68450;SHT30;67758;39.572;2.652;2024-02-23T08:58:03;13.47;60.06
68450;SHT30;67758;39.572;2.652;2024-02-23T09:00:31;13.50;60.18
68450;SHT30;67758;39.572;2.652;2024-02-23T09:02:57;13.45;60.53
68450;SHT30;67758;39.572;2.652;2024-02-23T09:05:22;13.54;60.87
68450;SHT30;67758;39.572;2.652;2024-02-23T09:07:48;13.54;60.66
68450;SHT30;67758;39.572;2.652;2024-02-23T09:10:13;13.51;60.73
68450;SHT30;67758;39.572;2.652;2024-02-23T09:12:39;13.57;60.79
68450;SHT30;67758;39.572;2.652;2024-02-23T09:15:05;13.66;60.95
68450;SHT30;67758;39.572;2.652;2024-02-23T09:17:31;13.76;61.27
68450;SHT30;67758;39.572;2.652;2024-02-23T09:19:57;13.75;59.48
68450;SHT30;67758;39.572;2.652;2024-02-23T09:22:22;13.79;59.65
68450;SHT30;67758;39.572;2.652;2024-02-23T09:24:48;13.76;59.21
68450;SHT30;67758;39.572;2.652;2024-02-23T09:27:14;13.76;60.00
68450;SHT30;67758;39.572;2.652;2024-02-23T09:29:41;13.87;59.99
68450;SHT30;67758;39.572;2.652;2024-02-23T09:32:09;13.92;59.96
68450;SHT30;67758;39.572;2.652;2024-02-23T09:34:34;14.03;59.77
68450;SHT30;67758;39.572;2.652;2024-02-23T09:37:00;13.95;59.52
68450;SHT30;67758;39.572;2.652;2024-02-23T09:39:26;14.01;58.76
68450;SHT30;67758;39.572;2.652;2024-02-23T09:41:56;14.19;58.72
68450;SHT30;67758;39.572;2.652;2024-02-23T09:44:29;14.19;57.88
68450;SHT30;67758;39.572;2.652;2024-02-23T09:47:00;14.29;58.19
68450;SHT30;67758;39.572;2.652;2024-02-23T09:49:26;14.26;58.82
68450;SHT30;67758;39.572;2.652;2024-02-23T09:51:53;14.27;58.65
68450;SHT30;67758;39.572;2.652;2024-02-23T09:54:20;14.51;58.54
68450;SHT30;67758;39.572;2.652;2024-02-23T09:56:45;14.40;58.72
68450;SHT30;67758;39.572;2.652;2024-02-23T09:59:11;14.20;59.16
68450;SHT30;67758;39.572;2.652;2024-02-23T10:01:38;14.30;59.40
68450;SHT30;67758;39.572;2.652;2024-02-23T10:04:04;14.22;58.48
68450;SHT30;67758;39.572;2.652;2024-02-23T10:06:31;14.47;58.67
68450;SHT30;67758;39.572;2.652;2024-02-23T10:08:57;14.56;57.47
68450;SHT30;67758;39.572;2.652;2024-02-23T10:11:23;14.60;56.64
68450;SHT30;67758;39.572;2.652;2024-02-23T10:13:50;14.71;57.09
68450;SHT30;67758;39.572;2.652;2024-02-23T10:16:17;14.84;57.47
68450;SHT30;67758;39.572;2.652;2024-02-23T10:18:46;14.61;57.15
68450;SHT30;67758;39.572;2.652;2024-02-23T10:21:12;14.51;57.48
68450;SHT30;67758;39.572;2.652;2024-02-23T10:23:38;14.46;57.79
68450;SHT30;67758;39.572;2.652;2024-02-23T10:26:05;14.51;57.73
68450;SHT30;67758;39.572;2.652;2024-02-23T10:28:31;15.87;53.88
68450;SHT30;67758;39.572;2.652;2024-02-23T10:30:57;16.41;52.25
68450;SHT30;67758;39.572;2.652;2024-02-23T10:33:23;16.69;51.67
68450;SHT30;67758;39.572;2.652;2024-02-23T10:35:56;17.46;49.72
68450;SHT30;67758;39.572;2.652;2024-02-23T10:38:23;17.08;48.06
68450;SHT30;67758;39.572;2.652;2024-02-23T10:40:50;17.44;46.46
68450;SHT30;67758;39.572;2.652;2024-02-23T10:43:19;17.42;46.13
68450;SHT30;67758;39.572;2.652;2024-02-23T10:45:46;17.93;45.57
68450;SHT30;67758;39.572;2.652;2024-02-23T10:48:12;17.77;45.54
68450;SHT30;67758;39.572;2.652;2024-02-23T10:50:40;17.40;46.78
68450;SHT30;67758;39.572;2.652;2024-02-23T10:53:10;17.80;46.25
68450;SHT30;67758;39.572;2.652;2024-02-23T10:55:37;18.31;45.74
68450;SHT30;67758;39.572;2.652;2024-02-23T10:58:06;17.63;46.40
68450;SHT30;67758;39.572;2.652;2024-02-23T11:00:37;17.63;46.66
68450;SHT30;67758;39.572;2.652;2024-02-23T11:03:03;17.69;46.03
68450;SHT30;67758;39.572;2.652;2024-02-23T11:05:30;17.60;46.22
68450;SHT30;67758;39.572;2.652;2024-02-23T11:07:56;17.87;46.09
68450;SHT30;67758;39.572;2.652;2024-02-23T11:10:22;18.90;44.40
68450;SHT30;67758;39.572;2.652;2024-02-23T11:13:00;17.37;46.91
68450;SHT30;67758;39.572;2.652;2024-02-23T11:15:30;17.26;47.45
68450;SHT30;67758;39.572;2.652;2024-02-23T11:17:59;17.40;47.65
68450;SHT30;67758;39.572;2.652;2024-02-23T11:20:34;18.55;45.93
68450;SHT30;67758;39.572;2.652;2024-02-23T11:23:00;18.32;46.63
68450;SHT30;67758;39.572;2.652;2024-02-23T11:25:29;18.95;45.10
68450;SHT30;67758;39.572;2.652;2024-02-23T11:27:54;19.37;44.54
68450;SHT30;67758;39.572;2.652;2024-02-23T11:30:20;18.46;45.19
68450;SHT30;67758;39.572;2.652;2024-02-23T11:32:47;18.89;43.86
68450;SHT30;67758;39.572;2.652;2024-02-23T11:35:17;19.07;43.10
68450;SHT30;67758;39.572;2.652;2024-02-23T11:37:53;18.51;43.78
68450;SHT30;67758;39.572;2.652;2024-02-23T11:40:27;19.08;43.42
68450;SHT30;67758;39.572;2.652;2024-02-23T11:42:55;19.58;42.86
68450;SHT30;67758;39.572;2.652;2024-02-23T11:45:21;19.27;42.90
68450;SHT30;67758;39.572;2.652;2024-02-23T11:47:51;18.52;44.57
68450;SHT30;67758;39.572;2.652;2024-02-23T11:50:18;19.59;43.83
68450;SHT30;67758;39.572;2.652;2024-02-23T11:52:48;19.34;42.64
68450;SHT30;67758;39.572;2.652;2024-02-23T11:55:23;19.55;41.72
68450;SHT30;67758;39.572;2.652;2024-02-23T11:57:51;19.91;40.36
68450;SHT30;67758;39.572;2.652;2024-02-23T12:00:17;19.96;41.44
68450;SHT30;67758;39.572;2.652;2024-02-23T12:02:44;20.13;41.52
68450;SHT30;67758;39.572;2.652;2024-02-23T12:05:15;19.37;42.23
68450;SHT30;67758;39.572;2.652;2024-02-23T12:07:41;18.76;42.90
68450;SHT30;67758;39.572;2.652;2024-02-23T12:10:09;18.92;42.58
68450;SHT30;67758;39.572;2.652;2024-02-23T12:12:36;20.20;40.69
68450;SHT30;67758;39.572;2.652;2024-02-23T12:15:02;20.43;40.51
68450;SHT30;67758;39.572;2.652;2024-02-23T12:17:28;20.44;40.42
68450;SHT30;67758;39.572;2.652;2024-02-23T12:19:59;20.37;40.92
68450;SHT30;67758;39.572;2.652;2024-02-23T12:22:25;20.54;39.53
68450;SHT30;67758;39.572;2.652;2024-02-23T12:24:51;21.99;37.75
68450;SHT30;67758;39.572;2.652;2024-02-23T12:27:17;21.15;38.99
68450;SHT30;67758;39.572;2.652;2024-02-23T12:29:54;20.69;40.05
68450;SHT30;67758;39.572;2.652;2024-02-23T12:32:20;19.82;40.87
68450;SHT30;67758;39.572;2.652;2024-02-23T12:34:47;19.99;40.39
68450;SHT30;67758;39.572;2.652;2024-02-23T12:37:16;20.85;39.62
68450;SHT30;67758;39.572;2.652;2024-02-23T12:39:43;19.50;40.14
68450;SHT30;67758;39.572;2.652;2024-02-23T12:42:08;20.64;39.55
68450;SHT30;67758;39.572;2.652;2024-02-23T12:44:37;20.67;39.39
68450;SHT30;67758;39.572;2.652;2024-02-23T12:47:05;20.18;40.74
68450;SHT30;67758;39.572;2.652;2024-02-23T12:49:31;19.43;41.31
68450;SHT30;67758;39.572;2.652;2024-02-23T12:51:57;18.93;42.77
68450;SHT30;67758;39.572;2.652;2024-02-23T12:54:22;18.90;41.73
68450;SHT30;67758;39.572;2.652;2024-02-23T12:56:48;18.89;42.17
68450;SHT30;67758;39.572;2.652;2024-02-23T12:59:15;18.46;43.37
68450;SHT30;67758;39.572;2.652;2024-02-23T13:01:40;18.26;43.48
68450;SHT30;67758;39.572;2.652;2024-02-23T13:04:06;18.11;43.42
68450;SHT30;67758;39.572;2.652;2024-02-23T13:06:37;18.15;43.71
68450;SHT30;67758;39.572;2.652;2024-02-23T13:09:04;18.46;42.93
68450;SHT30;67758;39.572;2.652;2024-02-23T13:11:30;18.05;43.38
68450;SHT30;67758;39.572;2.652;2024-02-23T13:13:56;18.26;43.19
68450;SHT30;67758;39.572;2.652;2024-02-23T13:16:22;18.35;43.00
68450;SHT30;67758;39.572;2.652;2024-02-23T13:18:47;18.45;43.19
68450;SHT30;67758;39.572;2.652;2024-02-23T13:21:13;18.51;42.85
68450;SHT30;67758;39.572;2.652;2024-02-23T13:23:39;18.42;42.70
68450;SHT30;67758;39.572;2.652;2024-02-23T13:26:07;18.00;41.59
68450;SHT30;67758;39.572;2.652;2024-02-23T13:28:32;18.79;42.00
68450;SHT30;67758;39.572;2.652;2024-02-23T13:30:58;19.41;42.20
68450;SHT30;67758;39.572;2.652;2024-02-23T13:33:24;19.24;42.49
68450;SHT30;67758;39.572;2.652;2024-02-23T13:35:51;18.19;38.54
68450;SHT30;67758;39.572;2.652;2024-02-23T13:38:17;18.41;39.32
68450;SHT30;67758;39.572;2.652;2024-02-23T13:40:42;18.69;39.30
68450;SHT30;67758;39.572;2.652;2024-02-23T13:43:08;18.01;41.28
68450;SHT30;67758;39.572;2.652;2024-02-23T13:45:48;18.79;40.88
68450;SHT30;67758;39.572;2.652;2024-02-23T13:48:14;18.22;40.73
68450;SHT30;67758;39.572;2.652;2024-02-23T13:50:40;18.11;40.50
68450;SHT30;67758;39.572;2.652;2024-02-23T13:53:06;17.83;40.56
68450;SHT30;67758;39.572;2.652;2024-02-23T13:55:31;17.78;41.77
68450;SHT30;67758;39.572;2.652;2024-02-23T13:57:57;18.41;41.26
68450;SHT30;67758;39.572;2.652;2024-02-23T14:00:23;19.16;40.25
68450;SHT30;67758;39.572;2.652;2024-02-23T14:02:48;18.70;40.26
68450;SHT30;67758;39.572;2.652;2024-02-23T14:05:14;19.91;39.36
68450;SHT30;67758;39.572;2.652;2024-02-23T14:07:40;19.98;39.63
68450;SHT30;67758;39.572;2.652;2024-02-23T14:10:07;19.92;39.40
68450;SHT30;67758;39.572;2.652;2024-02-23T14:12:33;20.57;38.41
68450;SHT30;67758;39.572;2.652;2024-02-23T14:14:58;20.39;38.90
68450;SHT30;67758;39.572;2.652;2024-02-23T14:17:24;20.08;39.97
68450;SHT30;67758;39.572;2.652;2024-02-23T14:19:50;20.44;40.18
68450;SHT30;67758;39.572;2.652;2024-02-23T14:22:16;20.42;39.89
68450;SHT30;67758;39.572;2.652;2024-02-23T14:24:42;21.31;38.18
68450;SHT30;67758;39.572;2.652;2024-02-23T14:27:08;21.45;38.05
68450;SHT30;67758;39.572;2.652;2024-02-23T14:29:33;21.39;37.32
68450;SHT30;67758;39.572;2.652;2024-02-23T14:31:59;21.31;36.87
68450;SHT30;67758;39.572;2.652;2024-02-23T14:34:26;19.53;37.81
68450;SHT30;67758;39.572;2.652;2024-02-23T14:36:52;19.23;39.99
68450;SHT30;67758;39.572;2.652;2024-02-23T14:39:18;20.28;38.34
68450;SHT30;67758;39.572;2.652;2024-02-23T14:41:43;20.76;37.69
68450;SHT30;67758;39.572;2.652;2024-02-23T14:44:09;21.30;36.15
68450;SHT30;67758;39.572;2.652;2024-02-23T14:46:34;21.63;35.43
68450;SHT30;67758;39.572;2.652;2024-02-23T14:49:00;22.02;35.12
68450;SHT30;67758;39.572;2.652;2024-02-23T14:51:26;21.58;35.30
68450;SHT30;67758;39.572;2.652;2024-02-23T14:53:51;21.12;34.65
68450;SHT30;67758;39.572;2.652;2024-02-23T14:56:17;20.36;34.52
68450;SHT30;67758;39.572;2.652;2024-02-23T14:58:43;20.40;33.74
68450;SHT30;67758;39.572;2.652;2024-02-23T15:01:08;20.19;34.12
68450;SHT30;67758;39.572;2.652;2024-02-23T15:03:34;20.30;34.43
68450;SHT30;67758;39.572;2.652;2024-02-23T15:06:02;20.05;35.71
68450;SHT30;67758;39.572;2.652;2024-02-23T15:08:28;20.25;35.94
68450;SHT30;67758;39.572;2.652;2024-02-23T15:10:54;19.47;36.28
68450;SHT30;67758;39.572;2.652;2024-02-23T15:13:20;19.00;37.65
68450;SHT30;67758;39.572;2.652;2024-02-23T15:15:46;18.42;38.16
68450;SHT30;67758;39.572;2.652;2024-02-23T15:18:11;19.24;37.00
68450;SHT30;67758;39.572;2.652;2024-02-23T15:20:37;19.26;36.90
68450;SHT30;67758;39.572;2.652;2024-02-23T15:23:03;18.80;37.62
68450;SHT30;67758;39.572;2.652;2024-02-23T15:25:28;18.95;38.05